sensor_id;sensor_type;location;lat;lon;timestamp;pressure;altitude;pressure_sealevel;temperature;humidity
64844;BME280;51310;52.198;5.422;2023-11-19T00:00:34;100581.31;;;12.88;99.96
64844;BME280;51310;52.198;5.422;2023-11-19T00:02:59;100582.16;;;12.89;99.94
64844;BME280;51310;52.198;5.422;2023-11-19T00:05:25;100571.13;;;12.81;99.89
64844;BME280;51310;52.198;5.422;2023-11-19T00:07:53;100579.56;;;12.87;99.89
64844;BME280;51310;52.198;5.422;2023-11-19T00:10:19;100579.75;;;12.97;99.68
64844;BME280;51310;52.198;5.422;2023-11-19T00:12:49;100555.31;;;12.89;99.55
64844;BME280;51310;52.198;5.422;2023-11-19T00:15:17;100569.97;;;12.96;99.38
64844;BME280;51310;52.198;5.422;2023-11-19T00:17:47;100580.94;;;12.93;99.29
64844;BME280;51310;52.198;5.422;2023-11-19T00:20:18;100596.19;;;12.93;99.15
64844;BME280;51310;52.198;5.422;2023-11-19T00:22:45;100578.97;;;12.84;98.93
64844;BME280;51310;52.198;5.422;2023-11-19T00:25:17;100587.13;;;12.82;99.09
64844;BME280;51310;52.198;5.422;2023-11-19T00:27:44;100584.53;;;12.81;99.04
64844;BME280;51310;52.198;5.422;2023-11-19T00:30:10;100569.44;;;12.80;99.07
64844;BME280;51310;52.198;5.422;2023-11-19T00:32:36;100565.19;;;12.77;99.01
64844;BME280;51310;52.198;5.422;2023-11-19T00:35:05;100536.50;;;12.66;99.12
64844;BME280;51310;52.198;5.422;2023-11-19T00:37:31;100530.50;;;12.63;99.26
64844;BME280;51310;52.198;5.422;2023-11-19T00:39:57;100547.13;;;12.68;99.43
64844;BME280;51310;52.198;5.422;2023-11-19T00:42:24;100542.59;;;12.68;99.45
64844;BME280;51310;52.198;5.422;2023-11-19T00:44:50;100537.69;;;12.62;99.59
64844;BME280;51310;52.198;5.422;2023-11-19T00:47:17;100544.19;;;12.71;99.62
64844;BME280;51310;52.198;5.422;2023-11-19T00:49:47;100524.19;;;12.64;99.48
64844;BME280;51310;52.198;5.422;2023-11-19T00:52:17;100535.91;;;12.74;99.59
64844;BME280;51310;52.198;5.422;2023-11-19T00:54:43;100548.56;;;12.72;99.65
64844;BME280;51310;52.198;5.422;2023-11-19T00:57:09;100532.72;;;12.69;99.55
64844;BME280;51310;52.198;5.422;2023-11-19T00:59:35;100540.66;;;12.70;99.56
64844;BME280;51310;52.198;5.422;2023-11-19T01:02:01;100540.03;;;12.67;99.62
64844;BME280;51310;52.198;5.422;2023-11-19T01:04:35;100557.50;;;12.73;99.49
64844;BME280;51310;52.198;5.422;2023-11-19T01:07:02;100549.44;;;12.73;99.22
64844;BME280;51310;52.198;5.422;2023-11-19T01:09:32;100556.53;;;12.85;99.24
64844;BME280;51310;52.198;5.422;2023-11-19T01:12:03;100548.72;;;12.82;98.87
64844;BME280;51310;52.198;5.422;2023-11-19T01:14:30;100557.03;;;12.90;98.53
64844;BME280;51310;52.198;5.422;2023-11-19T01:16:56;100559.22;;;12.85;98.20
64844;BME280;51310;52.198;5.422;2023-11-19T01:19:22;100550.44;;;12.83;98.19
64844;BME280;51310;52.198;5.422;2023-11-19T01:21:51;100522.63;;;12.73;98.02
64844;BME280;51310;52.198;5.422;2023-11-19T01:24:18;100524.72;;;12.80;98.12
64844;BME280;51310;52.198;5.422;2023-11-19T01:26:44;100528.75;;;12.86;98.04
64844;BME280;51310;52.198;5.422;2023-11-19T01:29:16;100510.69;;;12.77;97.94
64844;BME280;51310;52.198;5.422;2023-11-19T01:31:43;100508.97;;;12.76;97.80
64844;BME280;51310;52.198;5.422;2023-11-19T01:34:12;100499.72;;;12.80;97.89
64844;BME280;51310;52.198;5.422;2023-11-19T01:36:38;100517.66;;;12.79;97.77
64844;BME280;51310;52.198;5.422;2023-11-19T01:39:05;100516.06;;;12.77;97.74
64844;BME280;51310;52.198;5.422;2023-11-19T01:41:37;100513.38;;;12.77;97.69
64844;BME280;51310;52.198;5.422;2023-11-19T01:44:06;100518.22;;;12.71;97.55
64844;BME280;51310;52.198;5.422;2023-11-19T01:46:32;100503.97;;;12.71;97.43
64844;BME280;51310;52.198;5.422;2023-11-19T01:49:02;100513.84;;;12.70;97.33
64844;BME280;51310;52.198;5.422;2023-11-19T01:51:29;100527.00;;;12.74;97.32
64844;BME280;51310;52.198;5.422;2023-11-19T01:53:55;100502.00;;;12.62;97.46
64844;BME280;51310;52.198;5.422;2023-11-19T01:56:24;100506.53;;;12.61;97.45
64844;BME280;51310;52.198;5.422;2023-11-19T01:58:54;100514.06;;;12.67;97.27
64844;BME280;51310;52.198;5.422;2023-11-19T02:01:21;100517.97;;;12.63;97.32
64844;BME280;51310;52.198;5.422;2023-11-19T02:03:47;100507.34;;;12.50;97.23
64844;BME280;51310;52.198;5.422;2023-11-19T02:06:14;100525.25;;;12.50;97.28
64844;BME280;51310;52.198;5.422;2023-11-19T02:08:41;100512.66;;;12.39;97.29
64844;BME280;51310;52.198;5.422;2023-11-19T02:11:07;100514.97;;;12.44;97.51
64844;BME280;51310;52.198;5.422;2023-11-19T02:13:33;100506.56;;;12.37;97.51
64844;BME280;51310;52.198;5.422;2023-11-19T02:16:02;100496.78;;;12.25;97.65
64844;BME280;51310;52.198;5.422;2023-11-19T02:18:29;100511.13;;;12.24;97.78
64844;BME280;51310;52.198;5.422;2023-11-19T02:20:57;100514.16;;;12.19;97.97
64844;BME280;51310;52.198;5.422;2023-11-19T02:23:26;100523.28;;;12.17;97.92
64844;BME280;51310;52.198;5.422;2023-11-19T02:28:43;100530.50;;;12.03;98.25
64844;BME280;51310;52.198;5.422;2023-11-19T02:31:10;100517.81;;;11.94;98.32
64844;BME280;51310;52.198;5.422;2023-11-19T02:33:38;100530.88;;;11.86;98.62
64844;BME280;51310;52.198;5.422;2023-11-19T02:36:08;100510.47;;;11.72;98.82
64844;BME280;51310;52.198;5.422;2023-11-19T02:38:35;100534.84;;;11.80;98.83
64844;BME280;51310;52.198;5.422;2023-11-19T02:41:06;100523.50;;;11.77;98.88
64844;BME280;51310;52.198;5.422;2023-11-19T02:43:33;100508.63;;;11.73;98.86
64844;BME280;51310;52.198;5.422;2023-11-19T02:46:04;100523.50;;;11.77;98.94
64844;BME280;51310;52.198;5.422;2023-11-19T02:48:37;100523.50;;;11.77;98.87
64844;BME280;51310;52.198;5.422;2023-11-19T02:51:04;100517.31;;;11.76;98.90
64844;BME280;51310;52.198;5.422;2023-11-19T02:53:35;100525.84;;;11.81;98.72
64844;BME280;51310;52.198;5.422;2023-11-19T02:56:03;100522.44;;;11.79;98.56
64844;BME280;51310;52.198;5.422;2023-11-19T02:58:44;100520.50;;;11.81;98.31
64844;BME280;51310;52.198;5.422;2023-11-19T03:01:10;100510.91;;;11.66;98.21
64844;BME280;51310;52.198;5.422;2023-11-19T03:03:44;100526.94;;;11.79;98.03
64844;BME280;51310;52.198;5.422;2023-11-19T03:06:14;100524.16;;;11.80;97.83
64844;BME280;51310;52.198;5.422;2023-11-19T03:08:41;100524.59;;;11.74;97.66
64844;BME280;51310;52.198;5.422;2023-11-19T03:11:08;100520.56;;;11.69;97.42
64844;BME280;51310;52.198;5.422;2023-11-19T03:13:34;100524.94;;;11.57;97.27
64844;BME280;51310;52.198;5.422;2023-11-19T03:16:00;100518.84;;;11.55;97.23
64844;BME280;51310;52.198;5.422;2023-11-19T03:18:26;100506.38;;;11.42;97.00
64844;BME280;51310;52.198;5.422;2023-11-19T03:20:53;100503.69;;;11.42;96.92
64844;BME280;51310;52.198;5.422;2023-11-19T03:23:19;100523.19;;;11.44;96.81
64844;BME280;51310;52.198;5.422;2023-11-19T03:25:45;100518.47;;;11.35;96.86
64844;BME280;51310;52.198;5.422;2023-11-19T03:28:11;100531.13;;;11.33;97.01
64844;BME280;51310;52.198;5.422;2023-11-19T03:30:37;100543.97;;;11.28;97.11
64844;BME280;51310;52.198;5.422;2023-11-19T03:33:04;100531.53;;;11.27;97.25
64844;BME280;51310;52.198;5.422;2023-11-19T03:35:30;100512.50;;;11.19;97.38
64844;BME280;51310;52.198;5.422;2023-11-19T03:37:56;100516.78;;;11.21;97.32
64844;BME280;51310;52.198;5.422;2023-11-19T03:40:22;100475.94;;;11.07;97.24
64844;BME280;51310;52.198;5.422;2023-11-19T03:42:48;100493.91;;;11.04;97.31
64844;BME280;51310;52.198;5.422;2023-11-19T03:45:14;100501.16;;;11.15;97.24
64844;BME280;51310;52.198;5.422;2023-11-19T03:47:41;100504.03;;;11.12;97.15
64844;BME280;51310;52.198;5.422;2023-11-19T03:50:07;100483.44;;;10.89;97.18
64844;BME280;51310;52.198;5.422;2023-11-19T03:52:35;100494.78;;;10.92;97.34
64844;BME280;51310;52.198;5.422;2023-11-19T03:55:01;100495.41;;;10.83;97.44
64844;BME280;51310;52.198;5.422;2023-11-19T03:57:29;100511.25;;;10.86;97.49
64844;BME280;51310;52.198;5.422;2023-11-19T03:59:54;100513.59;;;10.91;97.39
64844;BME280;51310;52.198;5.422;2023-11-19T04:02:21;100501.47;;;10.85;97.54
64844;BME280;51310;52.198;5.422;2023-11-19T04:04:47;100506.84;;;10.85;97.31
64844;BME280;51310;52.198;5.422;2023-11-19T04:07:13;100513.91;;;10.86;97.26
64844;BME280;51310;52.198;5.422;2023-11-19T04:09:39;100521.09;;;10.86;97.18
64844;BME280;51310;52.198;5.422;2023-11-19T04:12:05;100517.34;;;10.88;97.08
64844;BME280;51310;52.198;5.422;2023-11-19T04:14:32;100523.09;;;10.95;96.92
64844;BME280;51310;52.198;5.422;2023-11-19T04:16:58;100516.78;;;10.96;96.69
64844;BME280;51310;52.198;5.422;2023-11-19T04:19:24;100530.81;;;10.99;96.36
64844;BME280;51310;52.198;5.422;2023-11-19T04:21:50;100536.66;;;10.92;96.10
64844;BME280;51310;52.198;5.422;2023-11-19T04:24:16;100550.16;;;10.90;96.18
64844;BME280;51310;52.198;5.422;2023-11-19T04:26:43;100547.91;;;10.84;96.22
64844;BME280;51310;52.198;5.422;2023-11-19T04:29:15;100548.66;;;10.86;96.23
64844;BME280;51310;52.198;5.422;2023-11-19T04:31:45;100543.94;;;10.77;96.08
64844;BME280;51310;52.198;5.422;2023-11-19T04:34:12;100546.81;;;10.74;96.31
64844;BME280;51310;52.198;5.422;2023-11-19T04:36:38;100533.34;;;10.75;96.22
64844;BME280;51310;52.198;5.422;2023-11-19T04:39:07;100533.03;;;10.80;96.16
64844;BME280;51310;52.198;5.422;2023-11-19T04:41:46;100536.47;;;10.82;96.03
64844;BME280;51310;52.198;5.422;2023-11-19T04:44:17;100519.16;;;10.75;95.80
64844;BME280;51310;52.198;5.422;2023-11-19T04:46:43;100525.56;;;10.72;95.74
64844;BME280;51310;52.198;5.422;2023-11-19T04:49:10;100530.47;;;10.66;95.69
64844;BME280;51310;52.198;5.422;2023-11-19T04:51:40;100534.44;;;10.73;95.75
64844;BME280;51310;52.198;5.422;2023-11-19T04:54:08;100523.38;;;10.65;95.93
64844;BME280;51310;52.198;5.422;2023-11-19T04:56:37;100523.81;;;10.71;95.86
64844;BME280;51310;52.198;5.422;2023-11-19T04:59:04;100528.31;;;10.71;96.02
64844;BME280;51310;52.198;5.422;2023-11-19T05:01:32;100529.41;;;10.68;96.06
64844;BME280;51310;52.198;5.422;2023-11-19T05:03:59;100530.16;;;10.70;95.98
64844;BME280;51310;52.198;5.422;2023-11-19T05:06:31;100530.66;;;10.62;96.03
64844;BME280;51310;52.198;5.422;2023-11-19T05:08:59;100522.09;;;10.57;96.17
64844;BME280;51310;52.198;5.422;2023-11-19T05:11:34;100536.66;;;10.66;96.09
64844;BME280;51310;52.198;5.422;2023-11-19T05:14:02;100556.16;;;10.81;95.87
64844;BME280;51310;52.198;5.422;2023-11-19T05:16:29;100551.56;;;10.83;95.67
64844;BME280;51310;52.198;5.422;2023-11-19T05:18:55;100555.50;;;10.90;95.26
64844;BME280;51310;52.198;5.422;2023-11-19T05:21:21;100518.91;;;10.78;94.68
64844;BME280;51310;52.198;5.422;2023-11-19T05:23:47;100539.88;;;10.84;94.49
64844;BME280;51310;52.198;5.422;2023-11-19T05:26:20;100536.13;;;10.74;94.29
64844;BME280;51310;52.198;5.422;2023-11-19T05:28:50;100537.75;;;10.76;94.13
64844;BME280;51310;52.198;5.422;2023-11-19T05:31:17;100531.66;;;10.74;94.03
64844;BME280;51310;52.198;5.422;2023-11-19T05:33:43;100525.31;;;10.62;93.68
64844;BME280;51310;52.198;5.422;2023-11-19T05:36:11;100525.75;;;10.56;93.76
64844;BME280;51310;52.198;5.422;2023-11-19T05:38:40;100525.41;;;10.48;93.91
64844;BME280;51310;52.198;5.422;2023-11-19T05:41:06;100540.38;;;10.51;94.02
64844;BME280;51310;52.198;5.422;2023-11-19T05:43:32;100546.56;;;10.51;93.81
64844;BME280;51310;52.198;5.422;2023-11-19T05:45:59;100541.53;;;10.47;93.81
64844;BME280;51310;52.198;5.422;2023-11-19T05:48:26;100546.13;;;10.45;93.64
64844;BME280;51310;52.198;5.422;2023-11-19T05:50:53;100555.75;;;10.47;93.40
64844;BME280;51310;52.198;5.422;2023-11-19T05:53:20;100548.34;;;10.38;93.34
64844;BME280;51310;52.198;5.422;2023-11-19T05:55:46;100552.66;;;10.40;93.41
64844;BME280;51310;52.198;5.422;2023-11-19T05:58:22;100548.56;;;10.35;93.32
64844;BME280;51310;52.198;5.422;2023-11-19T06:00:51;100530.34;;;10.27;93.16
64844;BME280;51310;52.198;5.422;2023-11-19T06:03:17;100556.91;;;10.43;93.14
64844;BME280;51310;52.198;5.422;2023-11-19T06:05:47;100562.06;;;10.46;93.18
64844;BME280;51310;52.198;5.422;2023-11-19T06:08:14;100557.38;;;10.62;92.60
64844;BME280;51310;52.198;5.422;2023-11-19T06:10:44;100542.63;;;10.57;92.04
64844;BME280;51310;52.198;5.422;2023-11-19T06:13:15;100550.56;;;10.58;91.97
64844;BME280;51310;52.198;5.422;2023-11-19T06:15:44;100555.16;;;10.56;92.12
64844;BME280;51310;52.198;5.422;2023-11-19T06:18:10;100544.09;;;10.48;92.29
64844;BME280;51310;52.198;5.422;2023-11-19T06:20:40;100548.59;;;10.48;92.54
64844;BME280;51310;52.198;5.422;2023-11-19T06:23:06;100546.25;;;10.43;92.72
64844;BME280;51310;52.198;5.422;2023-11-19T06:25:32;100559.06;;;10.51;92.71
64844;BME280;51310;52.198;5.422;2023-11-19T06:28:00;100541.53;;;10.47;92.45
64844;BME280;51310;52.198;5.422;2023-11-19T06:30:26;100554.56;;;10.51;92.27
64844;BME280;51310;52.198;5.422;2023-11-19T06:32:54;100555.00;;;10.45;92.42
64844;BME280;51310;52.198;5.422;2023-11-19T06:35:20;100550.72;;;10.43;92.56
64844;BME280;51310;52.198;5.422;2023-11-19T06:37:45;100545.97;;;10.33;92.65
64844;BME280;51310;52.198;5.422;2023-11-19T06:40:11;100560.38;;;10.31;93.08
64844;BME280;51310;52.198;5.422;2023-11-19T06:42:38;100553.81;;;10.36;93.08
64844;BME280;51310;52.198;5.422;2023-11-19T06:45:04;100564.97;;;10.29;93.15
64844;BME280;51310;52.198;5.422;2023-11-19T06:47:32;100556.19;;;10.27;93.00
64844;BME280;51310;52.198;5.422;2023-11-19T06:49:58;100557.09;;;10.40;92.92
64844;BME280;51310;52.198;5.422;2023-11-19T06:52:24;100579.22;;;10.42;92.82
64844;BME280;51310;52.198;5.422;2023-11-19T06:54:50;100565.38;;;10.50;92.59
64844;BME280;51310;52.198;5.422;2023-11-19T06:57:16;100561.25;;;10.58;92.04
64844;BME280;51310;52.198;5.422;2023-11-19T06:59:42;100557.16;;;10.53;91.93
64844;BME280;51310;52.198;5.422;2023-11-19T07:02:08;100543.44;;;10.45;91.88
64844;BME280;51310;52.198;5.422;2023-11-19T07:04:34;100558.63;;;10.44;91.63
64844;BME280;51310;52.198;5.422;2023-11-19T07:07:00;100577.91;;;10.49;91.60
64844;BME280;51310;52.198;5.422;2023-11-19T07:09:26;100555.50;;;10.37;91.70
64844;BME280;51310;52.198;5.422;2023-11-19T07:11:52;100569.13;;;10.47;91.39
64844;BME280;51310;52.198;5.422;2023-11-19T07:14:19;100586.44;;;10.54;91.26
64844;BME280;51310;52.198;5.422;2023-11-19T07:16:45;100579.38;;;10.53;91.10
64844;BME280;51310;52.198;5.422;2023-11-19T07:19:16;100590.63;;;10.58;90.73
64844;BME280;51310;52.198;5.422;2023-11-19T07:21:42;100589.03;;;10.69;90.53
64844;BME280;51310;52.198;5.422;2023-11-19T07:24:10;100601.03;;;10.76;90.10
64844;BME280;51310;52.198;5.422;2023-11-19T07:26:45;100598.03;;;10.80;89.66
64844;BME280;51310;52.198;5.422;2023-11-19T07:29:15;100609.38;;;10.84;89.65
64844;BME280;51310;52.198;5.422;2023-11-19T07:31:44;100593.56;;;10.81;89.42
64844;BME280;51310;52.198;5.422;2023-11-19T07:34:10;100603.81;;;10.87;89.31
64844;BME280;51310;52.198;5.422;2023-11-19T07:36:37;100590.31;;;10.76;89.35
64844;BME280;51310;52.198;5.422;2023-11-19T07:39:04;100580.69;;;10.60;89.54
64844;BME280;51310;52.198;5.422;2023-11-19T07:41:31;100601.78;;;10.78;89.45
64844;BME280;51310;52.198;5.422;2023-11-19T07:43:57;100602.88;;;10.88;89.24
64844;BME280;51310;52.198;5.422;2023-11-19T07:46:23;100603.28;;;10.82;89.30
64844;BME280;51310;52.198;5.422;2023-11-19T07:48:50;100610.91;;;10.88;89.22
64844;BME280;51310;52.198;5.422;2023-11-19T07:51:17;100604.72;;;10.88;88.94
64844;BME280;51310;52.198;5.422;2023-11-19T07:53:43;100615.63;;;10.97;88.94
64844;BME280;51310;52.198;5.422;2023-11-19T07:56:09;100602.34;;;10.96;88.85
64844;BME280;51310;52.198;5.422;2023-11-19T07:58:36;100615.41;;;11.00;88.83
64844;BME280;51310;52.198;5.422;2023-11-19T08:01:02;100606.00;;;11.08;88.70
64844;BME280;51310;52.198;5.422;2023-11-19T08:03:28;100601.72;;;11.05;88.53
64844;BME280;51310;52.198;5.422;2023-11-19T08:05:58;100609.41;;;11.10;88.39
64844;BME280;51310;52.198;5.422;2023-11-19T08:08:24;100594.84;;;11.01;88.60
64844;BME280;51310;52.198;5.422;2023-11-19T08:10:50;100597.44;;;11.02;88.70
64844;BME280;51310;52.198;5.422;2023-11-19T08:13:18;100583.94;;;10.91;88.97
64844;BME280;51310;52.198;5.422;2023-11-19T08:15:45;100592.19;;;10.88;89.20
64844;BME280;51310;52.198;5.422;2023-11-19T08:18:11;100606.19;;;10.92;89.60
64844;BME280;51310;52.198;5.422;2023-11-19T08:20:37;100594.53;;;10.93;89.89
64844;BME280;51310;52.198;5.422;2023-11-19T08:23:03;100608.53;;;10.96;89.97
64844;BME280;51310;52.198;5.422;2023-11-19T08:25:30;100608.34;;;10.99;90.18
64844;BME280;51310;52.198;5.422;2023-11-19T08:27:56;100601.72;;;10.92;90.36
64844;BME280;51310;52.198;5.422;2023-11-19T08:30:22;100598.06;;;10.93;90.63
64844;BME280;51310;52.198;5.422;2023-11-19T08:32:48;100592.19;;;10.88;90.97
64844;BME280;51310;52.198;5.422;2023-11-19T08:35:14;100614.31;;;11.03;90.97
64844;BME280;51310;52.198;5.422;2023-11-19T08:37:41;100620.44;;;11.18;90.82
64844;BME280;51310;52.198;5.422;2023-11-19T08:40:08;100624.75;;;11.33;90.35
64844;BME280;51310;52.198;5.422;2023-11-19T08:42:34;100625.78;;;11.43;89.90
64844;BME280;51310;52.198;5.422;2023-11-19T08:45:00;100607.63;;;11.49;89.46
64844;BME280;51310;52.198;5.422;2023-11-19T08:47:26;100611.78;;;11.53;89.21
64844;BME280;51310;52.198;5.422;2023-11-19T08:49:52;100597.03;;;11.47;88.98
64844;BME280;51310;52.198;5.422;2023-11-19T08:52:19;100621.19;;;11.58;88.99
64844;BME280;51310;52.198;5.422;2023-11-19T08:54:44;100620.13;;;11.61;88.49
64844;BME280;51310;52.198;5.422;2023-11-19T08:57:10;100626.56;;;11.58;88.47
64844;BME280;51310;52.198;5.422;2023-11-19T08:59:36;100621.72;;;11.63;88.27
64844;BME280;51310;52.198;5.422;2023-11-19T09:02:05;100621.84;;;11.62;88.01
64844;BME280;51310;52.198;5.422;2023-11-19T09:04:32;100621.63;;;11.65;87.98
64844;BME280;51310;52.198;5.422;2023-11-19T09:06:59;100612.63;;;11.66;87.93
64844;BME280;51310;52.198;5.422;2023-11-19T09:09:24;100624.63;;;11.73;87.78
64844;BME280;51310;52.198;5.422;2023-11-19T09:11:51;100629.22;;;11.71;87.38
64844;BME280;51310;52.198;5.422;2023-11-19T09:14:17;100613.34;;;11.68;87.30
64844;BME280;51310;52.198;5.422;2023-11-19T09:16:44;100606.84;;;11.72;86.96
64844;BME280;51310;52.198;5.422;2023-11-19T09:19:09;100611.53;;;11.81;86.59
64844;BME280;51310;52.198;5.422;2023-11-19T09:21:35;100606.16;;;11.81;86.46
64844;BME280;51310;52.198;5.422;2023-11-19T09:24:04;100588.94;;;11.73;86.00
64844;BME280;51310;52.198;5.422;2023-11-19T09:26:30;100615.19;;;11.80;85.98
64844;BME280;51310;52.198;5.422;2023-11-19T09:28:56;100615.59;;;11.87;85.89
64844;BME280;51310;52.198;5.422;2023-11-19T09:31:22;100604.66;;;11.77;86.21
64844;BME280;51310;52.198;5.422;2023-11-19T09:33:48;100615.69;;;11.85;86.09
64844;BME280;51310;52.198;5.422;2023-11-19T09:36:14;100600.41;;;11.87;86.13
64844;BME280;51310;52.198;5.422;2023-11-19T09:38:45;100605.56;;;11.78;85.92
64844;BME280;51310;52.198;5.422;2023-11-19T09:41:11;100594.59;;;11.81;85.89
64844;BME280;51310;52.198;5.422;2023-11-19T09:43:42;100607.47;;;11.88;86.16
64844;BME280;51310;52.198;5.422;2023-11-19T09:46:13;100593.88;;;11.92;86.18
64844;BME280;51310;52.198;5.422;2023-11-19T09:48:41;100601.25;;;11.88;86.56
64844;BME280;51310;52.198;5.422;2023-11-19T09:51:10;100602.75;;;11.92;85.90
64844;BME280;51310;52.198;5.422;2023-11-19T09:53:37;100587.31;;;11.83;85.85
64844;BME280;51310;52.198;5.422;2023-11-19T09:56:05;100587.78;;;11.90;86.22
64844;BME280;51310;52.198;5.422;2023-11-19T09:58:32;100581.56;;;11.89;86.12
64844;BME280;51310;52.198;5.422;2023-11-19T10:00:59;100593.13;;;11.90;85.82
64844;BME280;51310;52.198;5.422;2023-11-19T10:03:27;100602.41;;;11.97;85.57
64844;BME280;51310;52.198;5.422;2023-11-19T10:05:58;100605.09;;;11.97;85.56
64844;BME280;51310;52.198;5.422;2023-11-19T10:08:26;100601.22;;;12.01;85.40
64844;BME280;51310;52.198;5.422;2023-11-19T10:10:52;100596.28;;;12.07;85.37
64844;BME280;51310;52.198;5.422;2023-11-19T10:13:18;100597.97;;;12.08;85.08
64844;BME280;51310;52.198;5.422;2023-11-19T10:15:44;100588.75;;;12.13;85.12
64844;BME280;51310;52.198;5.422;2023-11-19T10:18:11;100576.97;;;12.15;84.88
64844;BME280;51310;52.198;5.422;2023-11-19T10:20:41;100561.34;;;12.09;84.53
64844;BME280;51310;52.198;5.422;2023-11-19T10:23:07;100583.38;;;12.25;83.94
64844;BME280;51310;52.198;5.422;2023-11-19T10:25:33;100588.28;;;12.32;83.20
64844;BME280;51310;52.198;5.422;2023-11-19T10:28:00;100580.94;;;12.34;83.19
64844;BME280;51310;52.198;5.422;2023-11-19T10:30:28;100573.44;;;12.39;83.26
64844;BME280;51310;52.198;5.422;2023-11-19T10:33:10;100578.50;;;12.55;82.46
64844;BME280;51310;52.198;5.422;2023-11-19T10:35:53;100590.38;;;12.63;81.90
64844;BME280;51310;52.198;5.422;2023-11-19T10:38:23;100577.56;;;12.67;81.52
64844;BME280;51310;52.198;5.422;2023-11-19T10:40:51;100573.56;;;12.73;81.12
64844;BME280;51310;52.198;5.422;2023-11-19T10:43:18;100563.97;;;12.81;80.77
64844;BME280;51310;52.198;5.422;2023-11-19T10:45:45;100584.84;;;13.00;80.44
64844;BME280;51310;52.198;5.422;2023-11-19T10:48:11;100584.97;;;12.99;79.95
64844;BME280;51310;52.198;5.422;2023-11-19T10:50:40;100577.09;;;13.08;79.83
64844;BME280;51310;52.198;5.422;2023-11-19T10:53:09;100579.97;;;13.05;80.09
64844;BME280;51310;52.198;5.422;2023-11-19T10:55:38;100565.03;;;12.79;81.87
64844;BME280;51310;52.198;5.422;2023-11-19T10:58:09;100573.75;;;12.58;84.04
64844;BME280;51310;52.198;5.422;2023-11-19T11:00:50;100575.47;;;12.35;86.15
64844;BME280;51310;52.198;5.422;2023-11-19T11:03:25;100574.28;;;12.39;86.43
64844;BME280;51310;52.198;5.422;2023-11-19T11:05:55;100567.66;;;12.56;85.93
64844;BME280;51310;52.198;5.422;2023-11-19T11:08:22;100589.16;;;12.79;84.78
64844;BME280;51310;52.198;5.422;2023-11-19T11:10:57;100590.94;;;12.91;83.64
64844;BME280;51310;52.198;5.422;2023-11-19T11:13:25;100571.44;;;13.00;82.10
64844;BME280;51310;52.198;5.422;2023-11-19T11:15:56;100579.78;;;13.20;80.02
64844;BME280;51310;52.198;5.422;2023-11-19T11:18:26;100572.69;;;13.19;79.46
64844;BME280;51310;52.198;5.422;2023-11-19T11:23:58;100574.09;;;13.36;78.34
64844;BME280;51310;52.198;5.422;2023-11-19T11:26:53;100575.31;;;13.31;78.08
64844;BME280;51310;52.198;5.422;2023-11-19T11:29:56;100579.22;;;13.39;77.89
64844;BME280;51310;52.198;5.422;2023-11-19T11:33:14;100565.53;;;13.30;78.26
64844;BME280;51310;52.198;5.422;2023-11-19T11:36:19;100566.16;;;13.34;77.71
64844;BME280;51310;52.198;5.422;2023-11-19T11:38:49;100553.94;;;13.30;78.03
64844;BME280;51310;52.198;5.422;2023-11-19T11:41:23;100551.22;;;13.19;77.52
64844;BME280;51310;52.198;5.422;2023-11-19T11:43:52;100548.44;;;13.20;77.48
64844;BME280;51310;52.198;5.422;2023-11-19T11:49:06;100546.69;;;13.19;76.87
64844;BME280;51310;52.198;5.422;2023-11-19T11:54:31;100561.00;;;13.20;76.01
64844;BME280;51310;52.198;5.422;2023-11-19T11:57:11;100566.84;;;13.25;74.93
64844;BME280;51310;52.198;5.422;2023-11-19T11:59:50;100539.28;;;13.11;75.80
64844;BME280;51310;52.198;5.422;2023-11-19T12:02:21;100555.13;;;13.15;76.48
64844;BME280;51310;52.198;5.422;2023-11-19T12:04:52;100555.38;;;13.11;77.52
64844;BME280;51310;52.198;5.422;2023-11-19T12:07:23;100550.97;;;12.99;78.93
64844;BME280;51310;52.198;5.422;2023-11-19T12:10:09;100534.63;;;13.02;78.80
64844;BME280;51310;52.198;5.422;2023-11-19T12:12:39;100517.41;;;12.94;78.85
64844;BME280;51310;52.198;5.422;2023-11-19T12:15:09;100550.63;;;13.04;78.97
64844;BME280;51310;52.198;5.422;2023-11-19T12:17:48;100554.34;;;13.01;79.28
64844;BME280;51310;52.198;5.422;2023-11-19T12:20:16;100528.25;;;12.92;79.19
64844;BME280;51310;52.198;5.422;2023-11-19T12:22:47;100526.94;;;12.98;79.09
64844;BME280;51310;52.198;5.422;2023-11-19T12:25:15;100542.94;;;13.10;78.93
64844;BME280;51310;52.198;5.422;2023-11-19T12:27:44;100519.28;;;13.04;78.58
64844;BME280;51310;52.198;5.422;2023-11-19T12:30:11;100546.88;;;13.29;78.35
64844;BME280;51310;52.198;5.422;2023-11-19T12:32:41;100544.78;;;13.32;78.01
64844;BME280;51310;52.198;5.422;2023-11-19T12:35:09;100534.28;;;13.18;78.33
64844;BME280;51310;52.198;5.422;2023-11-19T12:37:47;100542.44;;;13.17;78.15
64844;BME280;51310;52.198;5.422;2023-11-19T12:40:21;100540.75;;;13.16;78.33
64844;BME280;51310;52.198;5.422;2023-11-19T12:42:50;100540.47;;;13.07;78.21
64844;BME280;51310;52.198;5.422;2023-11-19T12:45:19;100542.94;;;13.10;78.67
64844;BME280;51310;52.198;5.422;2023-11-19T12:47:47;100542.22;;;13.08;78.94
64844;BME280;51310;52.198;5.422;2023-11-19T12:50:15;100535.13;;;13.07;79.62
64844;BME280;51310;52.198;5.422;2023-11-19T12:52:55;100536.56;;;13.00;79.54
64844;BME280;51310;52.198;5.422;2023-11-19T12:55:29;100546.28;;;12.90;79.15
64844;BME280;51310;52.198;5.422;2023-11-19T12:57:56;100543.50;;;12.91;79.09
64844;BME280;51310;52.198;5.422;2023-11-19T13:00:26;100540.22;;;12.88;79.11
64844;BME280;51310;52.198;5.422;2023-11-19T13:02:55;100539.22;;;12.89;79.24
64844;BME280;51310;52.198;5.422;2023-11-19T13:05:33;100548.63;;;12.95;78.53
64844;BME280;51310;52.198;5.422;2023-11-19T13:08:04;100546.28;;;12.90;78.61